Time;durP1;ratioP1;P1;durP2;ratioP2;P2;SDS_P1;SDS_P2;PMS_P1;PMS_P2;Temp;Humidity;BMP_temperature;BMP_pressure;BME280_temperature;BME280_humidity;BME280_pressure;Samples;Min_cycle;Max_cycle;Signal;HPM_P1;HPM_P2
2022/01/12 00:00:21;;;;;;;0.50;0.20;;;;;;;;;;5032775;28;20019;-66
2022/01/12 00:02:46;;;;;;;1.30;0.20;;;;;;;;;;5031212;28;20024;-66
2022/01/12 00:05:11;;;;;;;0.38;0.28;;;;;;;;;;5032038;28;20046;-66
2022/01/12 00:07:36;;;;;;;0.55;0.30;;;;;;;;;;5032247;28;20030;-66
2022/01/12 00:10:02;;;;;;;1.03;0.40;;;;;;;;;;5032228;28;20111;-66
2022/01/12 00:12:27;;;;;;;1.75;0.25;;;;;;;;;;5032244;28;20246;-66
2022/01/12 00:14:53;;;;;;;0.47;0.20;;;;;;;;;;5032340;28;20032;-65
2022/01/12 00:17:18;;;;;;;0.73;0.13;;;;;;;;;;5031856;28;20032;-65
2022/01/12 00:19:44;;;;;;;1.63;0.40;;;;;;;;;;5032165;28;20021;-65
2022/01/12 00:22:09;;;;;;;0.52;0.20;;;;;;;;;;5032149;28;20239;-66
2022/01/12 00:25:03;;;;;;;0.73;0.47;;;;;;;;;;5032236;28;20021;-66
2022/01/12 00:35:34;;;;;;;0.30;0.10;;;;;;;;;;5032021;28;20445;-66
2022/01/12 00:37:59;;;;;;;0.30;0.20;;;;;;;;;;5031918;28;20904;-65
2022/01/12 00:40:24;;;;;;;0.20;0.10;;;;;;;;;;5032030;28;20009;-66
2022/01/12 00:42:49;;;;;;;0.30;0.10;;;;;;;;;;5032061;28;20052;-65
2022/01/12 00:45:15;;;;;;;0.30;0.15;;;;;;;;;;5031849;28;20251;-64
2022/01/12 00:47:40;;;;;;;0.10;0.10;;;;;;;;;;5031903;28;20036;-65
2022/01/12 00:50:05;;;;;;;0.80;0.15;;;;;;;;;;5032081;28;20041;-66
2022/01/12 00:52:30;;;;;;;0.70;0.17;;;;;;;;;;5032319;28;20082;-65
2022/01/12 00:54:55;;;;;;;0.60;0.20;;;;;;;;;;5031620;28;20037;-64
2022/01/12 00:57:21;;;;;;;1.13;0.30;;;;;;;;;;5031750;28;20075;-65
2022/01/12 00:59:46;;;;;;;0.10;0.10;;;;;;;;;;5031831;28;20029;-65
2022/01/12 01:02:12;;;;;;;0.17;0.15;;;;;;;;;;5031717;28;20722;-66
2022/01/12 01:04:37;;;;;;;0.70;0.38;;;;;;;;;;5030424;28;20067;-66
2022/01/12 01:07:02;;;;;;;0.30;0.10;;;;;;;;;;5031599;28;20038;-65
2022/01/12 01:09:28;;;;;;;0.28;0.20;;;;;;;;;;5031651;28;20269;-65
2022/01/12 01:11:53;;;;;;;0.95;0.20;;;;;;;;;;5031779;28;20097;-66
2022/01/12 01:14:33;;;;;;;2.23;0.63;;;;;;;;;;5030405;28;20461;-65
2022/01/12 01:27:44;;;;;;;1.17;0.65;;;;;;;;;;5032058;28;20045;-66
2022/01/12 01:30:10;;;;;;;1.13;0.32;;;;;;;;;;5035093;28;20022;-65
2022/01/12 01:32:36;;;;;;;1.05;0.22;;;;;;;;;;5035233;28;20064;-65
2022/01/12 01:35:01;;;;;;;1.63;0.30;;;;;;;;;;5034952;28;20045;-65
2022/01/12 01:37:26;;;;;;;0.40;0.20;;;;;;;;;;5034882;28;20062;-66
2022/01/12 01:39:51;;;;;;;0.35;0.10;;;;;;;;;;5035109;28;20025;-65
2022/01/12 01:42:26;;;;;;;0.43;0.23;;;;;;;;;;5034815;28;20095;-66
2022/01/12 01:53:21;;;;;;;0.63;0.20;;;;;;;;;;4973383;28;20082;-65
2022/01/12 01:55:47;;;;;;;1.15;0.30;;;;;;;;;;4973545;28;20022;-65
2022/01/12 01:58:14;;;;;;;0.82;0.30;;;;;;;;;;4973283;28;20554;-66
2022/01/12 02:00:40;;;;;;;0.43;0.20;;;;;;;;;;4973382;28;20050;-65
2022/01/12 02:03:05;;;;;;;0.10;0.10;;;;;;;;;;4973260;28;20055;-66
2022/01/12 02:05:31;;;;;;;0.20;0.10;;;;;;;;;;4972975;28;20478;-66
2022/01/12 02:07:57;;;;;;;1.13;0.40;;;;;;;;;;4973311;28;20256;-66
2022/01/12 02:10:22;;;;;;;0.50;0.10;;;;;;;;;;4973331;28;20292;-65
2022/01/12 02:12:47;;;;;;;0.85;0.20;;;;;;;;;;4973310;28;20038;-66
2022/01/12 02:15:18;;;;;;;0.82;0.30;;;;;;;;;;4972996;28;20039;-65
2022/01/12 02:17:56;;;;;;;0.20;0.20;;;;;;;;;;4973071;28;20516;-66
2022/01/12 02:39:53;;;;;;;0.28;0.20;;;;;;;;;;4972577;28;20073;-65
2022/01/12 02:42:19;;;;;;;0.70;0.17;;;;;;;;;;4972513;28;20066;-66
2022/01/12 02:55:40;;;;;;;0.55;0.30;;;;;;;;;;4972603;28;20038;-65
2022/01/12 02:58:06;;;;;;;0.73;0.20;;;;;;;;;;4972244;28;20022;-66
2022/01/12 03:00:46;;;;;;;0.50;0.20;;;;;;;;;;4972442;28;20102;-66
2022/01/12 03:03:20;;;;;;;0.82;0.40;;;;;;;;;;5016700;28;20075;-66
2022/01/12 03:05:54;;;;;;;0.20;0.10;;;;;;;;;;5033214;28;20045;-66
2022/01/12 03:08:23;;;;;;;1.17;0.30;;;;;;;;;;5033685;28;20013;-65
2022/01/12 03:10:48;;;;;;;0.38;0.20;;;;;;;;;;5033477;28;20052;-66
2022/01/12 03:13:13;;;;;;;0.37;0.20;;;;;;;;;;5033348;28;20021;-66
2022/01/12 03:15:40;;;;;;;0.40;0.30;;;;;;;;;;5033157;28;20259;-65
2022/01/12 03:18:06;;;;;;;0.63;0.30;;;;;;;;;;5032991;28;20045;-66
2022/01/12 03:20:31;;;;;;;0.55;0.20;;;;;;;;;;5033507;28;20421;-67
2022/01/12 03:22:56;;;;;;;0.28;0.20;;;;;;;;;;5031773;28;20022;-65
2022/01/12 03:25:21;;;;;;;0.20;0.20;;;;;;;;;;5032945;28;20030;-65
2022/01/12 03:27:46;;;;;;;1.27;0.25;;;;;;;;;;5033059;28;20030;-65
2022/01/12 03:30:12;;;;;;;1.08;0.20;;;;;;;;;;5032865;28;20039;-66
2022/01/12 03:32:44;;;;;;;0.82;0.30;;;;;;;;;;5031792;28;20021;-65
2022/01/12 03:35:23;;;;;;;0.57;0.10;;;;;;;;;;5032764;28;20055;-66
2022/01/12 03:40:32;;;;;;;0.90;0.30;;;;;;;;;;5032877;28;20025;-65
2022/01/12 03:42:57;;;;;;;0.57;0.30;;;;;;;;;;5032657;28;20384;-65
2022/01/12 03:45:22;;;;;;;0.67;0.30;;;;;;;;;;5032731;28;20258;-66
2022/01/12 03:47:47;;;;;;;0.57;0.20;;;;;;;;;;5033047;28;20720;-66
2022/01/12 03:50:12;;;;;;;0.30;0.13;;;;;;;;;;5032095;28;20259;-66
2022/01/12 03:52:37;;;;;;;0.30;0.30;;;;;;;;;;5032485;28;20111;-66
2022/01/12 03:55:03;;;;;;;0.33;0.27;;;;;;;;;;5032481;28;20247;-66
2022/01/12 03:57:28;;;;;;;0.40;0.13;;;;;;;;;;5032353;28;20271;-66
2022/01/12 03:59:53;;;;;;;0.20;0.10;;;;;;;;;;5032626;28;20014;-65
2022/01/12 04:02:18;;;;;;;1.27;0.25;;;;;;;;;;5032438;28;20049;-66
2022/01/12 04:05:07;;;;;;;0.43;0.28;;;;;;;;;;5032282;28;20396;-67
2022/01/12 04:10:13;;;;;;;0.32;0.10;;;;;;;;;;5032343;28;20079;-65
2022/01/12 04:12:38;;;;;;;0.10;0.10;;;;;;;;;;5032470;28;20416;-66
2022/01/12 04:15:04;;;;;;;0.63;0.20;;;;;;;;;;5032078;28;20412;-65
2022/01/12 04:17:29;;;;;;;0.35;0.20;;;;;;;;;;5032060;28;20018;-66
2022/01/12 04:19:54;;;;;;;0.30;0.20;;;;;;;;;;5032338;28;20354;-65
2022/01/12 04:25:03;;;;;;;0.28;0.20;;;;;;;;;;5032045;28;20068;-65
2022/01/12 04:27:28;;;;;;;1.08;0.30;;;;;;;;;;5032074;28;20524;-66
2022/01/12 04:29:54;;;;;;;0.73;0.40;;;;;;;;;;5032496;28;20440;-65
2022/01/12 04:32:21;;;;;;;0.30;0.20;;;;;;;;;;5032137;28;20433;-65
2022/01/12 04:34:46;;;;;;;1.35;0.65;;;;;;;;;;5032169;28;20255;-66
2022/01/12 04:37:11;;;;;;;0.20;0.10;;;;;;;;;;5031796;28;20278;-66
2022/01/12 04:39:36;;;;;;;0.60;0.35;;;;;;;;;;5031935;28;20278;-66
2022/01/12 04:42:02;;;;;;;0.30;0.17;;;;;;;;;;5031958;28;20100;-66
2022/01/12 04:44:27;;;;;;;0.40;0.20;;;;;;;;;;5032036;28;20029;-66
2022/01/12 04:47:04;;;;;;;0.50;0.30;;;;;;;;;;5032126;28;20053;-65
2022/01/12 04:52:00;;;;;;;0.30;0.20;;;;;;;;;;5032186;28;20068;-66
2022/01/12 04:54:26;;;;;;;0.22;0.10;;;;;;;;;;5031993;28;20442;-66
2022/01/12 04:56:51;;;;;;;0.15;0.10;;;;;;;;;;5031910;28;20041;-65
2022/01/12 04:59:16;;;;;;;0.55;0.30;;;;;;;;;;5031716;28;20032;-65
2022/01/12 05:01:50;;;;;;;0.25;0.20;;;;;;;;;;5032155;28;20385;-66
2022/01/12 05:15:17;;;;;;;0.47;0.20;;;;;;;;;;5035356;28;20036;-65
2022/01/12 05:17:42;;;;;;;0.63;0.45;;;;;;;;;;5035322;28;20031;-66
2022/01/12 05:20:07;;;;;;;1.38;0.20;;;;;;;;;;5035326;28;20104;-66
2022/01/12 05:22:32;;;;;;;1.02;0.20;;;;;;;;;;5035398;28;20033;-66
2022/01/12 05:24:57;;;;;;;1.03;0.30;;;;;;;;;;5035293;28;20022;-65
2022/01/12 05:27:23;;;;;;;0.88;0.30;;;;;;;;;;5035163;28;20488;-65
2022/01/12 05:29:48;;;;;;;0.10;0.10;;;;;;;;;;5035345;28;20026;-65
2022/01/12 05:32:13;;;;;;;1.05;0.20;;;;;;;;;;5035097;28;20617;-66
2022/01/12 05:34:39;;;;;;;0.70;0.20;;;;;;;;;;5035307;28;20392;-66
2022/01/12 05:37:04;;;;;;;0.63;0.20;;;;;;;;;;5034812;28;20013;-65
2022/01/12 05:39:29;;;;;;;0.10;0.10;;;;;;;;;;5035006;28;20049;-66
2022/01/12 05:41:54;;;;;;;0.28;0.20;;;;;;;;;;5035020;28;20441;-65
2022/01/12 05:44:22;;;;;;;0.40;0.30;;;;;;;;;;5034920;28;20025;-65
2022/01/12 05:46:47;;;;;;;0.65;0.10;;;;;;;;;;5035096;28;20037;-65
2022/01/12 05:51:56;;;;;;;1.17;0.25;;;;;;;;;;5034882;28;20270;-66
2022/01/12 05:54:21;;;;;;;0.80;0.10;;;;;;;;;;5034585;28;20457;-66
2022/01/12 05:56:47;;;;;;;0.32;0.10;;;;;;;;;;5034823;28;20382;-65
2022/01/12 05:59:12;;;;;;;1.25;0.25;;;;;;;;;;5034551;28;20169;-66
2022/01/12 06:01:38;;;;;;;0.30;0.20;;;;;;;;;;5034365;28;20017;-66
2022/01/12 06:04:03;;;;;;;0.20;0.10;;;;;;;;;;5034283;28;20313;-65
2022/01/12 06:06:28;;;;;;;0.93;0.20;;;;;;;;;;5034645;28;20021;-65
2022/01/12 06:08:53;;;;;;;0.37;0.10;;;;;;;;;;5034562;28;20033;-66
2022/01/12 06:11:19;;;;;;;0.90;0.10;;;;;;;;;;5033020;28;20254;-66
2022/01/12 06:13:44;;;;;;;0.35;0.10;;;;;;;;;;5033609;28;20251;-66
2022/01/12 06:16:09;;;;;;;0.45;0.15;;;;;;;;;;5032905;28;20112;-67
2022/01/12 06:18:34;;;;;;;1.40;0.50;;;;;;;;;;5034453;28;20461;-66
2022/01/12 06:20:59;;;;;;;0.40;0.40;;;;;;;;;;5034120;28;20243;-66
2022/01/12 06:23:24;;;;;;;0.27;0.10;;;;;;;;;;5034145;28;20358;-65
2022/01/12 06:25:50;;;;;;;0.80;0.20;;;;;;;;;;5034260;28;20330;-65
2022/01/12 06:28:37;;;;;;;1.10;0.22;;;;;;;;;;5032552;28;20031;-66
2022/01/12 06:31:10;;;;;;;0.40;0.10;;;;;;;;;;5033809;28;20284;-66
2022/01/12 06:33:36;;;;;;;0.88;0.22;;;;;;;;;;5032584;28;20113;-67
2022/01/12 06:36:01;;;;;;;0.22;0.20;;;;;;;;;;5033748;28;20108;-65
2022/01/12 06:38:26;;;;;;;0.50;0.30;;;;;;;;;;5032733;28;20088;-65
2022/01/12 06:40:51;;;;;;;0.57;0.20;;;;;;;;;;5031746;28;20053;-61
2022/01/12 06:43:16;;;;;;;0.30;0.10;;;;;;;;;;5032343;28;20251;-64
2022/01/12 06:45:42;;;;;;;0.20;0.20;;;;;;;;;;5031240;28;20072;-65
2022/01/12 06:48:07;;;;;;;0.65;0.20;;;;;;;;;;5033454;28;20384;-70
2022/01/12 06:50:32;;;;;;;1.80;0.40;;;;;;;;;;5033630;28;20029;-69
2022/01/12 06:52:57;;;;;;;0.93;0.20;;;;;;;;;;5033526;28;20247;-67
2022/01/12 06:55:22;;;;;;;1.53;0.33;;;;;;;;;;5033473;28;20041;-67
2022/01/12 06:57:48;;;;;;;0.47;0.30;;;;;;;;;;5033420;28;20461;-69
2022/01/12 07:00:13;;;;;;;1.02;0.30;;;;;;;;;;5033310;28;20251;-64
2022/01/12 07:02:38;;;;;;;2.15;0.32;;;;;;;;;;5033389;28;20025;-67
2022/01/12 07:05:04;;;;;;;0.77;0.40;;;;;;;;;;5032982;28;20064;-65
2022/01/12 07:07:29;;;;;;;0.77;0.40;;;;;;;;;;5033213;28;20021;-65
2022/01/12 07:09:54;;;;;;;0.40;0.15;;;;;;;;;;5033347;28;20457;-65
2022/01/12 07:12:19;;;;;;;0.80;0.20;;;;;;;;;;5033204;28;20033;-65
2022/01/12 07:14:44;;;;;;;0.50;0.20;;;;;;;;;;5033140;28;20029;-65
2022/01/12 07:17:12;;;;;;;0.40;0.20;;;;;;;;;;5032913;28;20023;-62
2022/01/12 07:19:37;;;;;;;1.23;0.20;;;;;;;;;;5033058;28;20016;-64
2022/01/12 07:22:02;;;;;;;2.93;0.20;;;;;;;;;;5031680;28;20025;-65
2022/01/12 07:24:28;;;;;;;0.22;0.10;;;;;;;;;;5029362;28;20661;-70
2022/01/12 07:26:53;;;;;;;1.13;0.30;;;;;;;;;;5040583;28;20075;-64
2022/01/12 07:29:18;;;;;;;1.00;0.20;;;;;;;;;;5030964;28;20273;-68
2022/01/12 07:31:45;;;;;;;0.47;0.30;;;;;;;;;;5031818;28;20474;-66
2022/01/12 07:34:13;;;;;;;0.73;0.20;;;;;;;;;;5031062;28;20033;-65
2022/01/12 07:36:38;;;;;;;0.47;0.20;;;;;;;;;;5032474;28;20017;-67
2022/01/12 07:39:03;;;;;;;0.28;0.20;;;;;;;;;;5031630;28;20018;-65
2022/01/12 07:41:29;;;;;;;0.70;0.27;;;;;;;;;;5029532;28;20028;-64
2022/01/12 07:43:54;;;;;;;0.50;0.10;;;;;;;;;;5032184;28;20741;-69
2022/01/12 07:46:19;;;;;;;0.65;0.40;;;;;;;;;;5028715;28;20096;-65
2022/01/12 07:48:45;;;;;;;0.77;0.30;;;;;;;;;;5031499;28;20021;-59
2022/01/12 07:51:10;;;;;;;1.07;0.37;;;;;;;;;;5031270;28;20762;-70
2022/01/12 07:53:35;;;;;;;1.03;0.30;;;;;;;;;;5031240;28;20296;-69
2022/01/12 07:56:01;;;;;;;0.28;0.17;;;;;;;;;;5026324;28;20753;-68
2022/01/12 07:58:26;;;;;;;0.75;0.20;;;;;;;;;;5031151;28;20013;-66
2022/01/12 08:00:51;;;;;;;0.40;0.20;;;;;;;;;;5031825;28;20087;-69
2022/01/12 08:03:20;;;;;;;0.43;0.20;;;;;;;;;;5032442;28;20044;-68
2022/01/12 08:05:45;;;;;;;0.13;0.10;;;;;;;;;;5031022;28;20047;-68
2022/01/12 08:08:12;;;;;;;1.33;0.50;;;;;;;;;;5032231;28;20022;-68
2022/01/12 08:10:37;;;;;;;0.73;0.25;;;;;;;;;;5031214;28;20031;-68
2022/01/12 08:13:02;;;;;;;1.23;0.17;;;;;;;;;;5032171;28;20025;-70
2022/01/12 08:15:28;;;;;;;0.67;0.17;;;;;;;;;;5030954;28;20057;-68
2022/01/12 08:17:53;;;;;;;0.73;0.20;;;;;;;;;;5032256;28;20270;-68
2022/01/12 08:20:22;;;;;;;0.75;0.20;;;;;;;;;;5032226;28;20079;-70
2022/01/12 08:22:47;;;;;;;0.50;0.20;;;;;;;;;;5031084;28;20029;-68
2022/01/12 08:25:12;;;;;;;0.38;0.10;;;;;;;;;;5032038;28;20034;-68
2022/01/12 08:27:38;;;;;;;1.33;0.40;;;;;;;;;;5032111;28;20022;-68
2022/01/12 08:30:04;;;;;;;0.20;0.10;;;;;;;;;;5032082;28;20665;-69
2022/01/12 08:32:29;;;;;;;0.52;0.10;;;;;;;;;;5032267;28;20018;-70
2022/01/12 08:34:55;;;;;;;0.52;0.20;;;;;;;;;;5032098;28;20022;-69
2022/01/12 08:37:20;;;;;;;0.20;0.10;;;;;;;;;;5033406;28;20066;-68
2022/01/12 08:39:45;;;;;;;0.50;0.20;;;;;;;;;;5035878;28;20038;-69
2022/01/12 08:42:10;;;;;;;0.30;0.17;;;;;;;;;;5034488;28;20021;-65
2022/01/12 08:44:36;;;;;;;0.33;0.07;;;;;;;;;;5034733;28;20021;-68
2022/01/12 08:47:01;;;;;;;0.43;0.22;;;;;;;;;;5034292;28;20845;-69
2022/01/12 08:49:26;;;;;;;0.40;0.30;;;;;;;;;;5035713;28;20067;-63
2022/01/12 08:51:51;;;;;;;1.17;0.50;;;;;;;;;;5035847;28;20029;-61
2022/01/12 08:54:17;;;;;;;0.33;0.20;;;;;;;;;;5036004;28;20322;-70
2022/01/12 08:56:42;;;;;;;1.27;0.28;;;;;;;;;;5035785;28;20270;-66
2022/01/12 08:59:07;;;;;;;0.57;0.30;;;;;;;;;;5035497;28;20029;-68
2022/01/12 09:01:32;;;;;;;0.65;0.10;;;;;;;;;;5035451;28;20030;-66
2022/01/12 09:03:57;;;;;;;0.33;0.10;;;;;;;;;;5034001;28;20060;-67
2022/01/12 09:06:22;;;;;;;0.47;0.10;;;;;;;;;;5035597;28;20255;-65
2022/01/12 09:08:49;;;;;;;0.20;0.20;;;;;;;;;;5035616;28;20112;-71
2022/01/12 09:11:15;;;;;;;1.70;0.20;;;;;;;;;;5035354;28;20634;-69
2022/01/12 09:13:40;;;;;;;1.02;0.30;;;;;;;;;;5033868;28;20025;-64
2022/01/12 09:16:06;;;;;;;1.38;0.20;;;;;;;;;;5035242;28;20017;-68
2022/01/12 09:18:33;;;;;;;1.13;0.20;;;;;;;;;;5035378;28;20018;-67
2022/01/12 09:20:59;;;;;;;0.35;0.13;;;;;;;;;;5032943;28;21481;-69
2022/01/12 09:23:24;;;;;;;1.15;0.20;;;;;;;;;;5032790;28;20025;-68
2022/01/12 09:25:50;;;;;;;0.60;0.40;;;;;;;;;;5034444;28;20033;-71
2022/01/12 09:28:16;;;;;;;0.67;0.30;;;;;;;;;;5032971;28;20756;-70
2022/01/12 09:30:41;;;;;;;0.75;0.20;;;;;;;;;;5035253;28;20251;-69
2022/01/12 09:33:06;;;;;;;0.55;0.30;;;;;;;;;;5033248;28;20408;-65
2022/01/12 09:35:32;;;;;;;1.80;0.30;;;;;;;;;;5032602;28;20041;-69
2022/01/12 09:37:57;;;;;;;1.05;0.30;;;;;;;;;;5034769;28;20033;-70
2022/01/12 09:40:22;;;;;;;2.87;0.57;;;;;;;;;;5034911;28;20076;-62
2022/01/12 09:42:48;;;;;;;1.37;0.30;;;;;;;;;;5032721;28;20030;-62
2022/01/12 09:45:16;;;;;;;0.90;0.40;;;;;;;;;;5034769;28;20247;-59
2022/01/12 09:47:43;;;;;;;1.55;0.17;;;;;;;;;;5033615;28;20416;-62
2022/01/12 09:50:12;;;;;;;1.55;0.45;;;;;;;;;;5032403;28;20369;-58
2022/01/12 09:52:37;;;;;;;1.63;0.40;;;;;;;;;;5032372;28;20036;-60
2022/01/12 09:55:03;;;;;;;1.27;0.20;;;;;;;;;;5033098;28;20022;-62
2022/01/12 09:57:28;;;;;;;1.75;0.52;;;;;;;;;;5033401;28;20109;-62
2022/01/12 09:59:53;;;;;;;0.90;0.30;;;;;;;;;;5033489;28;20385;-65
2022/01/12 10:02:19;;;;;;;1.83;0.50;;;;;;;;;;5033209;28;20025;-64
2022/01/12 10:04:45;;;;;;;0.40;0.20;;;;;;;;;;5033233;28;20279;-66
2022/01/12 10:07:11;;;;;;;2.33;0.20;;;;;;;;;;5033197;28;20447;-65
2022/01/12 10:09:38;;;;;;;0.77;0.28;;;;;;;;;;5034300;28;20480;-64
2022/01/12 10:12:05;;;;;;;0.40;0.25;;;;;;;;;;5033317;28;20036;-63
2022/01/12 10:14:58;;;;;;;0.45;0.13;;;;;;;;;;5033241;28;20021;-64
2022/01/12 10:17:34;;;;;;;4.18;0.47;;;;;;;;;;5029540;28;20037;-59
2022/01/12 10:20:05;;;;;;;1.45;0.22;;;;;;;;;;5032738;28;20087;-61
2022/01/12 10:22:30;;;;;;;1.77;0.52;;;;;;;;;;5030977;28;20369;-59
2022/01/12 10:24:55;;;;;;;0.80;0.43;;;;;;;;;;5034237;28;20472;-62
2022/01/12 10:27:20;;;;;;;2.47;0.50;;;;;;;;;;5043311;28;20250;-61
2022/01/12 10:29:54;;;;;;;1.23;0.30;;;;;;;;;;5025704;28;20045;-61
2022/01/12 10:32:19;;;;;;;0.32;0.10;;;;;;;;;;5032452;28;20297;-61
2022/01/12 10:34:46;;;;;;;0.93;0.25;;;;;;;;;;5033382;28;20469;-60
2022/01/12 10:37:12;;;;;;;0.28;0.28;;;;;;;;;;5033253;28;20195;-61
2022/01/12 10:39:39;;;;;;;0.28;0.10;;;;;;;;;;5032675;28;20017;-60
2022/01/12 10:42:05;;;;;;;0.98;0.30;;;;;;;;;;5029033;28;20021;-60
2022/01/12 10:44:30;;;;;;;0.90;0.20;;;;;;;;;;5033245;28;20519;-60
2022/01/12 10:47:02;;;;;;;0.83;0.40;;;;;;;;;;5032803;28;20113;-61
2022/01/12 10:49:30;;;;;;;0.38;0.22;;;;;;;;;;5032757;28;20255;-61
2022/01/12 10:51:56;;;;;;;0.28;0.10;;;;;;;;;;5030870;28;20036;-60
2022/01/12 10:54:21;;;;;;;0.85;0.20;;;;;;;;;;5032750;28;20240;-60
2022/01/12 10:56:46;;;;;;;0.50;0.10;;;;;;;;;;5041982;28;20030;-60
2022/01/12 10:59:15;;;;;;;0.20;0.20;;;;;;;;;;5030449;28;20026;-60
2022/01/12 11:01:40;;;;;;;1.10;0.10;;;;;;;;;;5030832;28;20282;-61
2022/01/12 11:04:06;;;;;;;1.08;0.28;;;;;;;;;;5042624;28;20068;-60
2022/01/12 11:06:32;;;;;;;2.25;0.10;;;;;;;;;;5029361;28;20041;-61
2022/01/12 11:08:57;;;;;;;0.30;0.15;;;;;;;;;;5029965;28;20025;-62
2022/01/12 11:11:25;;;;;;;1.30;0.20;;;;;;;;;;5027278;28;20484;-61
2022/01/12 11:13:52;;;;;;;0.63;0.28;;;;;;;;;;5028866;28;20017;-62
2022/01/12 11:16:24;;;;;;;0.28;0.10;;;;;;;;;;5030429;28;20017;-61
2022/01/12 11:18:50;;;;;;;0.10;0.10;;;;;;;;;;5030341;28;20028;-60
2022/01/12 11:21:20;;;;;;;0.20;0.10;;;;;;;;;;5029934;28;20025;-60
2022/01/12 11:23:46;;;;;;;0.22;0.00;;;;;;;;;;5027745;28;20057;-60
2022/01/12 11:26:12;;;;;;;0.93;0.20;;;;;;;;;;5031385;28;20005;-60
2022/01/12 11:28:38;;;;;;;0.03;0.00;;;;;;;;;;5031481;28;20066;-60
2022/01/12 11:31:04;;;;;;;0.17;0.00;;;;;;;;;;5031064;28;20120;-62
2022/01/12 11:33:29;;;;;;;0.52;0.30;;;;;;;;;;5039072;28;20049;-68
2022/01/12 11:35:55;;;;;;;0.60;0.32;;;;;;;;;;5036261;28;20049;-62
2022/01/12 11:38:28;;;;;;;0.40;0.10;;;;;;;;;;5032875;28;20029;-61
2022/01/12 11:40:55;;;;;;;0.10;0.10;;;;;;;;;;5032433;28;20049;-62
2022/01/12 11:43:23;;;;;;;0.43;0.10;;;;;;;;;;5031283;28;20096;-60
2022/01/12 11:46:09;;;;;;;0.45;0.20;;;;;;;;;;5030817;28;20017;-61
2022/01/12 11:48:43;;;;;;;0.25;0.10;;;;;;;;;;5030441;28;20519;-60
2022/01/12 11:51:08;;;;;;;0.60;0.20;;;;;;;;;;5029415;28;20108;-63
2022/01/12 11:53:43;;;;;;;0.10;0.00;;;;;;;;;;5031018;28;20117;-63
2022/01/12 11:56:13;;;;;;;0.90;0.30;;;;;;;;;;5029816;28;20376;-64
2022/01/12 11:58:56;;;;;;;0.22;0.10;;;;;;;;;;5028660;28;20465;-62
2022/01/12 12:01:25;;;;;;;0.20;0.10;;;;;;;;;;5030148;28;20032;-66
2022/01/12 12:04:00;;;;;;;0.10;0.10;;;;;;;;;;5029688;28;20029;-62
2022/01/12 12:06:25;;;;;;;0.20;0.10;;;;;;;;;;5030765;28;20049;-67
2022/01/12 12:08:57;;;;;;;0.55;0.20;;;;;;;;;;5030585;28;20021;-64
2022/01/12 12:11:28;;;;;;;0.32;0.10;;;;;;;;;;5031440;28;20043;-65
2022/01/12 12:13:53;;;;;;;0.50;0.10;;;;;;;;;;5029588;28;20013;-66
2022/01/12 12:16:18;;;;;;;0.57;0.10;;;;;;;;;;5031417;28;20104;-61
2022/01/12 12:18:44;;;;;;;1.10;0.40;;;;;;;;;;5030526;28;20042;-62
2022/01/12 12:21:09;;;;;;;0.40;0.10;;;;;;;;;;5030529;28;20032;-60
2022/01/12 12:23:34;;;;;;;1.40;0.10;;;;;;;;;;5030273;28;20026;-68
2022/01/12 12:26:00;;;;;;;0.35;0.20;;;;;;;;;;5030783;28;20041;-73
2022/01/12 12:28:25;;;;;;;0.38;0.32;;;;;;;;;;5031460;28;20056;-70
2022/01/12 12:30:51;;;;;;;1.55;0.10;;;;;;;;;;5031907;28;20026;-70
2022/01/12 12:33:16;;;;;;;0.45;0.10;;;;;;;;;;5029968;28;20017;-69
2022/01/12 12:35:42;;;;;;;0.47;0.20;;;;;;;;;;5030393;28;20071;-69
2022/01/12 12:38:12;;;;;;;0.10;0.00;;;;;;;;;;5025549;28;20060;-67
2022/01/12 12:40:39;;;;;;;0.55;0.20;;;;;;;;;;5028853;28;20034;-65
2022/01/12 12:43:25;;;;;;;0.57;0.17;;;;;;;;;;5030394;28;20049;-62
2022/01/12 12:45:54;;;;;;;0.40;0.08;;;;;;;;;;5030339;28;20025;-61
2022/01/12 12:48:24;;;;;;;0.90;0.10;;;;;;;;;;5027373;28;20021;-60
2022/01/12 12:51:01;;;;;;;0.70;0.10;;;;;;;;;;5030866;28;20028;-62
2022/01/12 12:53:30;;;;;;;0.47;0.20;;;;;;;;;;5030456;28;20105;-63
2022/01/12 12:55:56;;;;;;;0.00;0.00;;;;;;;;;;5038255;28;20052;-60
2022/01/12 12:58:24;;;;;;;0.22;0.10;;;;;;;;;;5030705;28;20025;-60
2022/01/12 13:00:49;;;;;;;0.75;0.20;;;;;;;;;;5030641;28;20021;-62
2022/01/12 13:03:14;;;;;;;0.50;0.22;;;;;;;;;;5030468;28;20075;-61
2022/01/12 13:05:43;;;;;;;0.55;0.00;;;;;;;;;;5025424;28;20056;-63
2022/01/12 13:08:08;;;;;;;0.98;0.20;;;;;;;;;;5030107;28;20021;-61
2022/01/12 13:10:34;;;;;;;0.50;0.10;;;;;;;;;;5032970;28;20024;-64
2022/01/12 13:13:02;;;;;;;0.57;0.10;;;;;;;;;;5024798;28;20032;-66
2022/01/12 13:15:27;;;;;;;0.25;0.10;;;;;;;;;;5028957;28;20025;-66
2022/01/12 13:17:58;;;;;;;1.20;0.30;;;;;;;;;;5029327;28;20041;-63
2022/01/12 13:23:00;;;;;;;0.45;0.30;;;;;;;;;;5027679;28;20489;-63
2022/01/12 13:25:25;;;;;;;0.30;0.10;;;;;;;;;;5028121;28;20029;-62
2022/01/12 13:27:50;;;;;;;0.35;0.20;;;;;;;;;;5027329;28;20076;-62
2022/01/12 13:30:30;;;;;;;0.50;0.08;;;;;;;;;;5029792;28;20064;-69
2022/01/12 13:32:56;;;;;;;0.30;0.10;;;;;;;;;;5028907;28;20107;-62
2022/01/12 13:35:26;;;;;;;0.47;0.10;;;;;;;;;;5030186;28;20101;-64
2022/01/12 13:37:56;;;;;;;0.25;0.05;;;;;;;;;;5029386;28;20377;-64
2022/01/12 13:40:21;;;;;;;0.95;0.30;;;;;;;;;;5032139;28;20014;-64
2022/01/12 13:42:54;;;;;;;0.00;0.00;;;;;;;;;;5033803;28;20037;-64
2022/01/12 13:45:42;;;;;;;0.00;0.00;;;;;;;;;;5030874;28;20112;-63
2022/01/12 13:48:13;;;;;;;0.57;0.00;;;;;;;;;;5029826;28;20044;-63
2022/01/12 13:50:39;;;;;;;0.25;0.00;;;;;;;;;;5032002;28;20100;-62
2022/01/12 13:53:04;;;;;;;0.63;0.17;;;;;;;;;;5033045;28;20057;-61
2022/01/12 13:55:30;;;;;;;0.40;0.10;;;;;;;;;;5028608;28;20045;-59
2022/01/12 13:57:56;;;;;;;0.75;0.10;;;;;;;;;;5031332;28;20394;-61
2022/01/12 14:00:21;;;;;;;0.65;0.17;;;;;;;;;;5027315;28;20519;-61
2022/01/12 14:02:46;;;;;;;0.10;0.00;;;;;;;;;;5035847;28;20024;-63
2022/01/12 14:05:18;;;;;;;0.38;0.10;;;;;;;;;;5033704;28;20046;-61
2022/01/12 14:07:58;;;;;;;0.77;0.10;;;;;;;;;;5032969;28;20025;-62
2022/01/12 14:10:23;;;;;;;2.13;0.20;;;;;;;;;;5033903;28;20072;-70
2022/01/12 14:12:49;;;;;;;0.30;0.10;;;;;;;;;;5029282;28;20033;-66
2022/01/12 14:15:20;;;;;;;0.60;0.10;;;;;;;;;;5032313;28;20025;-66
2022/01/12 14:17:47;;;;;;;0.65;0.20;;;;;;;;;;5034713;28;20546;-64
2022/01/12 14:20:21;;;;;;;0.93;0.10;;;;;;;;;;5031044;28;20529;-64
2022/01/12 14:22:53;;;;;;;1.80;0.30;;;;;;;;;;5031601;28;20028;-63
2022/01/12 14:25:20;;;;;;;0.73;0.15;;;;;;;;;;5032027;28;20144;-63
2022/01/12 14:27:47;;;;;;;0.68;0.15;;;;;;;;;;5029875;28;20022;-61
2022/01/12 14:30:13;;;;;;;0.60;0.10;;;;;;;;;;5032305;28;20024;-62
2022/01/12 14:32:39;;;;;;;0.55;0.10;;;;;;;;;;5031206;28;20358;-60
2022/01/12 14:35:05;;;;;;;0.30;0.10;;;;;;;;;;5025902;28;20553;-61
2022/01/12 14:37:30;;;;;;;1.00;0.20;;;;;;;;;;5031245;28;20048;-61
2022/01/12 14:39:55;;;;;;;0.50;0.10;;;;;;;;;;5023157;28;20072;-62
2022/01/12 14:42:20;;;;;;;0.50;0.10;;;;;;;;;;5031174;28;20760;-62
2022/01/12 14:44:46;;;;;;;0.53;0.20;;;;;;;;;;5033109;28;20039;-60
2022/01/12 14:47:11;;;;;;;0.40;0.15;;;;;;;;;;5028571;28;20040;-62
2022/01/12 14:49:36;;;;;;;2.53;0.10;;;;;;;;;;5030200;28;20029;-61
2022/01/12 14:52:02;;;;;;;1.43;0.20;;;;;;;;;;5028058;28;20304;-61
2022/01/12 14:54:27;;;;;;;0.47;0.13;;;;;;;;;;5031639;28;20024;-61
2022/01/12 14:56:52;;;;;;;0.40;0.10;;;;;;;;;;5022697;28;20036;-61
2022/01/12 14:59:17;;;;;;;1.00;0.40;;;;;;;;;;5026082;28;20040;-62
2022/01/12 15:01:42;;;;;;;0.13;0.10;;;;;;;;;;5030825;28;20021;-61
2022/01/12 15:04:07;;;;;;;0.50;0.10;;;;;;;;;;5030225;28;20056;-61
2022/01/12 15:06:33;;;;;;;0.10;0.00;;;;;;;;;;5030737;28;20033;-61
2022/01/12 15:08:58;;;;;;;0.30;0.10;;;;;;;;;;5032804;28;20463;-62
2022/01/12 15:11:23;;;;;;;0.20;0.20;;;;;;;;;;5033193;28;20254;-61
2022/01/12 15:13:58;;;;;;;1.80;0.20;;;;;;;;;;5024733;28;20022;-61
2022/01/12 15:16:23;;;;;;;0.73;0.20;;;;;;;;;;5029691;28;20254;-61
2022/01/12 15:18:48;;;;;;;0.63;0.10;;;;;;;;;;5030599;28;20014;-62
2022/01/12 15:21:14;;;;;;;0.30;0.10;;;;;;;;;;5030409;28;20258;-60
2022/01/12 15:23:39;;;;;;;0.30;0.05;;;;;;;;;;5029579;28;20269;-61
2022/01/12 15:26:05;;;;;;;0.10;0.10;;;;;;;;;;5029938;28;20018;-62
2022/01/12 15:28:31;;;;;;;0.93;0.15;;;;;;;;;;5032122;28;20285;-61
2022/01/12 15:30:56;;;;;;;1.40;0.00;;;;;;;;;;5031844;28;20021;-61
2022/01/12 15:33:22;;;;;;;0.20;0.10;;;;;;;;;;5029828;28;20024;-61
2022/01/12 15:35:47;;;;;;;0.10;0.10;;;;;;;;;;5030942;28;20021;-61
2022/01/12 15:38:12;;;;;;;0.20;0.00;;;;;;;;;;5031157;28;20745;-60
2022/01/12 15:40:39;;;;;;;0.43;0.10;;;;;;;;;;5031952;28;20293;-60
2022/01/12 15:43:04;;;;;;;1.25;0.00;;;;;;;;;;5025433;28;20457;-60
2022/01/12 15:45:30;;;;;;;0.28;0.20;;;;;;;;;;5032149;28;20017;-60
2022/01/12 15:47:55;;;;;;;1.33;0.57;;;;;;;;;;5030640;28;20032;-61
2022/01/12 15:50:20;;;;;;;1.55;0.13;;;;;;;;;;5029580;28;20029;-62
2022/01/12 15:52:46;;;;;;;0.20;0.17;;;;;;;;;;5029769;28;20108;-61
2022/01/12 15:55:11;;;;;;;1.45;0.50;;;;;;;;;;5029524;28;20039;-62
2022/01/12 15:57:36;;;;;;;0.45;0.28;;;;;;;;;;5029135;28;20488;-61
2022/01/12 16:00:03;;;;;;;0.20;0.10;;;;;;;;;;5028250;28;20029;-60
2022/01/12 16:02:28;;;;;;;1.13;0.10;;;;;;;;;;5031913;28;20060;-61
2022/01/12 16:04:53;;;;;;;0.10;0.10;;;;;;;;;;5032239;28;20077;-61